createdAt,value
2023-01-17T00:02:25.872Z,3.25
2023-01-17T00:05:12.171Z,3.23
2023-01-17T00:07:58.419Z,3.22
2023-01-17T00:10:28.150Z,3.20
2023-01-17T00:13:02.957Z,3.20
2023-01-17T00:15:31.835Z,3.18
2023-01-17T00:17:59.954Z,3.18
2023-01-17T00:20:49.565Z,3.18
2023-01-17T00:23:42.466Z,3.18
2023-01-17T00:26:16.273Z,3.18
2023-01-17T00:28:44.852Z,3.17
2023-01-17T00:31:15.838Z,3.18
2023-01-17T00:33:43.734Z,3.18
2023-01-17T00:36:11.773Z,3.18
2023-01-17T00:38:40.256Z,3.16
2023-01-17T00:41:12.009Z,3.10
2023-01-17T00:43:58.741Z,3.08
2023-01-17T00:46:45.674Z,3.07
2023-01-17T00:49:32.421Z,3.02
2023-01-17T00:52:19.615Z,3.04
2023-01-17T00:55:08.944Z,3.04
2023-01-17T00:57:55.289Z,3.05
2023-01-17T01:00:41.884Z,3.04
2023-01-17T01:03:29.259Z,3.04
2023-01-17T01:06:16.420Z,3.03
2023-01-17T01:09:03.062Z,2.99
2023-01-17T01:11:49.253Z,3.04
2023-01-17T01:14:35.631Z,3.05
2023-01-17T01:17:22.236Z,3.05
2023-01-17T01:20:08.553Z,3.06
2023-01-17T01:22:54.811Z,3.06
2023-01-17T01:25:41.313Z,3.05
2023-01-17T01:28:32.704Z,3.04
2023-01-17T01:31:24.618Z,3.04
2023-01-17T01:33:53.091Z,3.05
2023-01-17T01:36:21.267Z,3.06
2023-01-17T01:38:49.789Z,3.08
2023-01-17T01:41:17.741Z,3.08
2023-01-17T01:43:54.539Z,3.08
2023-01-17T01:46:41.275Z,3.08
2023-01-17T01:49:19.165Z,3.02
2023-01-17T01:51:59.874Z,3.08
2023-01-17T01:54:39.419Z,3.09
2023-01-17T01:57:12.216Z,3.11
2023-01-17T01:59:48.233Z,3.13
2023-01-17T02:02:16.373Z,3.13
2023-01-17T02:04:44.938Z,3.13
2023-01-17T02:07:24.473Z,3.13
2023-01-17T02:09:53.004Z,3.12
2023-01-17T02:12:21.973Z,3.13
2023-01-17T02:14:49.708Z,3.12
2023-01-17T02:17:23.037Z,3.11
2023-01-17T02:20:48.048Z,3.10
2023-01-17T02:23:56.406Z,3.11
2023-01-17T02:26:59.027Z,3.10
2023-01-17T02:30:18.429Z,3.06
2023-01-17T02:33:10.174Z,3.05
2023-01-17T02:35:46.648Z,3.05
2023-01-17T02:38:31.445Z,3.07
2023-01-17T02:41:07.390Z,3.08
2023-01-17T02:43:37.312Z,3.10
2023-01-17T02:46:05.501Z,3.13
2023-01-17T02:48:36.598Z,3.16
2023-01-17T02:51:21.983Z,3.18
2023-01-17T02:54:06.756Z,3.21
2023-01-17T02:57:19.192Z,3.22
2023-01-17T03:00:09.591Z,3.23
2023-01-17T03:02:54.820Z,3.25
2023-01-17T03:05:51.894Z,3.26
2023-01-17T03:08:21.220Z,3.28
2023-01-17T03:10:49.285Z,3.30
2023-01-17T03:13:17.409Z,3.31
2023-01-17T03:15:45.551Z,3.32
2023-01-17T03:18:15.897Z,3.34
2023-01-17T03:20:44.009Z,3.33
2023-01-17T03:23:11.956Z,3.33
2023-01-17T03:25:39.911Z,3.33
2023-01-17T03:28:07.722Z,3.33
2023-01-17T03:30:40.774Z,3.32
2023-01-17T03:33:08.854Z,3.33
2023-01-17T03:35:36.991Z,3.33
2023-01-17T03:38:04.813Z,3.34
2023-01-17T03:40:32.700Z,3.36
2023-01-17T03:43:00.555Z,3.37
2023-01-17T03:45:28.326Z,3.38
2023-01-17T03:47:57.495Z,3.42
2023-01-17T03:50:26.102Z,3.41
2023-01-17T03:52:53.952Z,3.47
2023-01-17T03:55:21.972Z,3.48
2023-01-17T03:57:50.004Z,3.51
2023-01-17T04:00:18.209Z,3.51
2023-01-17T04:02:46.210Z,3.53
2023-01-17T04:05:14.391Z,3.54
2023-01-17T04:07:42.302Z,3.55
2023-01-17T04:10:11.072Z,3.59
2023-01-17T04:12:39.051Z,3.62
2023-01-17T04:15:07.898Z,3.62
2023-01-17T04:17:35.844Z,3.64
2023-01-17T04:20:04.449Z,3.65
2023-01-17T04:22:32.551Z,3.65
2023-01-17T04:25:00.571Z,3.65
2023-01-17T04:27:28.525Z,3.64
2023-01-17T04:29:56.685Z,3.65
2023-01-17T04:32:24.601Z,3.64
2023-01-17T04:34:52.522Z,3.62
2023-01-17T04:37:20.793Z,3.59
2023-01-17T04:39:48.783Z,3.56
2023-01-17T04:42:16.639Z,3.52
2023-01-17T04:44:44.504Z,3.50
2023-01-17T04:47:14.029Z,3.47
2023-01-17T04:49:44.133Z,3.45
2023-01-17T04:52:12.240Z,3.42
2023-01-17T04:54:41.200Z,3.40
2023-01-17T04:57:10.331Z,3.39
2023-01-17T04:59:38.336Z,3.37
2023-01-17T05:02:06.205Z,3.38
2023-01-17T05:04:33.893Z,3.35
2023-01-17T05:07:01.836Z,3.30
2023-01-17T05:09:29.744Z,3.34
2023-01-17T05:11:58.421Z,3.34
2023-01-17T05:14:26.484Z,3.34
2023-01-17T05:16:58.741Z,3.35
2023-01-17T05:19:29.027Z,3.37
2023-01-17T05:21:58.990Z,3.36
2023-01-17T05:24:27.212Z,3.34
2023-01-17T05:26:58.912Z,3.34
2023-01-17T05:29:30.145Z,3.32
2023-01-17T05:31:58.102Z,3.30
2023-01-17T05:34:25.962Z,3.29
2023-01-17T05:36:54.536Z,3.28
2023-01-17T05:39:22.293Z,3.29
2023-01-17T05:41:50.455Z,3.28
2023-01-17T05:44:18.408Z,3.29
2023-01-17T05:46:46.211Z,3.29
2023-01-17T05:49:14.198Z,3.29
2023-01-17T05:51:42.431Z,3.29
2023-01-17T05:54:10.423Z,3.33
2023-01-17T05:56:38.055Z,3.32
2023-01-17T05:59:06.155Z,3.32
2023-01-17T06:01:33.997Z,3.33
2023-01-17T06:04:01.802Z,3.34
2023-01-17T06:06:29.506Z,3.35
2023-01-17T06:08:57.848Z,3.36
2023-01-17T06:11:26.754Z,3.38
2023-01-17T06:13:54.788Z,3.40
2023-01-17T06:16:22.879Z,3.41
2023-01-17T06:18:50.594Z,3.44
2023-01-17T06:21:19.222Z,3.45
2023-01-17T06:23:47.041Z,3.47
2023-01-17T06:26:14.760Z,3.50
2023-01-17T06:28:42.477Z,3.52
2023-01-17T06:31:10.300Z,3.56
2023-01-17T06:33:38.077Z,3.57
2023-01-17T06:36:06.811Z,3.61
2023-01-17T06:38:34.558Z,3.64
2023-01-17T06:41:05.716Z,3.69
2023-01-17T06:43:34.479Z,3.72
2023-01-17T06:46:02.170Z,3.75
2023-01-17T06:48:30.188Z,3.78
2023-01-17T06:50:58.697Z,3.82
2023-01-17T06:53:26.436Z,3.85
2023-01-17T06:55:57.486Z,3.86
2023-01-17T06:58:25.261Z,3.89
2023-01-17T07:00:53.484Z,3.91
2023-01-17T07:03:25.772Z,3.93
2023-01-17T07:05:53.611Z,3.96
2023-01-17T07:08:21.798Z,3.99
2023-01-17T07:10:49.682Z,4.00
2023-01-17T07:13:17.577Z,4.02
2023-01-17T07:15:45.696Z,4.04
2023-01-17T07:18:14.230Z,4.08
2023-01-17T07:20:43.424Z,4.11
2023-01-17T07:23:12.266Z,4.15
2023-01-17T07:25:40.055Z,4.20
2023-01-17T07:28:08.277Z,4.25
2023-01-17T07:30:36.218Z,4.29
2023-01-17T07:33:05.780Z,4.35
2023-01-17T07:35:33.827Z,4.42
2023-01-17T07:38:01.434Z,4.50
2023-01-17T07:40:29.267Z,4.55
2023-01-17T07:43:01.815Z,4.63
2023-01-17T07:45:29.460Z,4.71
2023-01-17T07:47:57.545Z,4.82
2023-01-17T07:50:25.292Z,4.89
2023-01-17T07:52:53.809Z,4.94
2023-01-17T07:55:21.664Z,4.97
2023-01-17T07:57:50.437Z,5.01
2023-01-17T08:00:19.066Z,5.06
2023-01-17T08:02:46.817Z,5.10
2023-01-17T08:05:15.938Z,5.14
2023-01-17T08:07:43.714Z,5.17
2023-01-17T08:10:16.067Z,5.18
2023-01-17T08:12:49.561Z,5.20
2023-01-17T08:15:18.813Z,5.20
2023-01-17T08:17:51.825Z,5.19
2023-01-17T08:20:20.723Z,5.21
2023-01-17T08:22:48.247Z,5.20
2023-01-17T08:25:15.941Z,5.18
2023-01-17T08:27:44.029Z,5.15
2023-01-17T08:30:12.702Z,5.12
2023-01-17T08:32:42.156Z,5.12
2023-01-17T08:35:10.299Z,5.11
2023-01-17T08:37:39.219Z,5.15
2023-01-17T08:40:10.498Z,5.15
2023-01-17T08:42:40.449Z,5.14
2023-01-17T08:45:10.096Z,5.16
2023-01-17T08:47:38.177Z,5.14
2023-01-17T08:50:06.372Z,5.14
2023-01-17T08:52:35.244Z,5.16
2023-01-17T08:55:05.537Z,5.17
2023-01-17T08:57:33.102Z,5.18
2023-01-17T09:00:01.080Z,5.19
2023-01-17T09:02:29.139Z,5.21
2023-01-17T09:04:56.992Z,5.22
2023-01-17T09:07:26.532Z,5.23
2023-01-17T09:09:54.317Z,5.24
2023-01-17T09:12:21.937Z,5.28
2023-01-17T09:14:49.509Z,5.27
2023-01-17T09:17:17.159Z,5.27
2023-01-17T09:19:44.907Z,5.30
2023-01-17T09:22:12.648Z,5.31
2023-01-17T09:24:42.937Z,5.34
2023-01-17T09:27:11.871Z,5.35
2023-01-17T09:29:39.467Z,5.35
2023-01-17T09:32:06.968Z,5.34
2023-01-17T09:34:36.644Z,5.34
2023-01-17T09:37:04.339Z,5.35
2023-01-17T09:39:31.967Z,5.32
2023-01-17T09:42:08.096Z,5.28
2023-01-17T09:44:48.893Z,5.26
2023-01-17T09:47:21.915Z,5.26
2023-01-17T09:49:49.594Z,5.27
2023-01-17T09:52:23.290Z,5.25
2023-01-17T09:54:51.573Z,5.23
2023-01-17T09:58:00.535Z,5.25
2023-01-17T10:00:36.553Z,5.29
2023-01-17T10:03:30.238Z,5.37
2023-01-17T10:06:32.473Z,5.44
2023-01-17T10:09:20.980Z,5.48
2023-01-17T10:12:15.920Z,5.56
2023-01-17T10:15:15.054Z,5.59
2023-01-17T10:18:05.743Z,5.59
2023-01-17T10:20:55.591Z,5.59
2023-01-17T10:23:56.406Z,5.60
2023-01-17T10:26:26.519Z,5.60
2023-01-17T10:29:00.979Z,5.59
2023-01-17T10:31:36.928Z,5.59
2023-01-17T10:34:18.989Z,5.57
2023-01-17T10:36:52.103Z,5.55
2023-01-17T10:39:25.268Z,5.54
2023-01-17T10:42:18.315Z,5.56
2023-01-17T10:45:17.073Z,5.57
2023-01-17T10:47:49.841Z,5.59
2023-01-17T10:50:19.476Z,5.62
2023-01-17T10:53:03.366Z,5.66
2023-01-17T10:55:45.431Z,5.70
2023-01-17T10:58:13.411Z,5.73
2023-01-17T11:00:58.602Z,5.76
2023-01-17T11:03:28.459Z,5.78
2023-01-17T11:06:24.403Z,5.79
2023-01-17T11:09:01.758Z,5.86
2023-01-17T11:11:32.520Z,5.89
2023-01-17T11:14:07.611Z,5.93
2023-01-17T11:16:36.704Z,5.98
2023-01-17T11:19:15.644Z,6.03
2023-01-17T11:21:58.139Z,6.07
2023-01-17T11:24:40.275Z,6.14
2023-01-17T11:27:13.873Z,6.21
2023-01-17T11:29:41.745Z,6.30
2023-01-17T11:32:30.313Z,6.39
2023-01-17T11:35:25.257Z,6.45
2023-01-17T11:38:20.808Z,6.53
2023-01-17T11:40:50.188Z,6.58
2023-01-17T11:43:25.124Z,6.62
2023-01-17T11:46:17.266Z,6.65
2023-01-17T11:48:55.883Z,6.65
2023-01-17T11:51:35.363Z,6.76
2023-01-17T11:54:20.377Z,6.84
2023-01-17T11:56:50.074Z,6.93
2023-01-17T11:59:38.513Z,6.96
2023-01-17T12:02:39.895Z,6.99
2023-01-17T12:05:47.747Z,7.05
2023-01-17T12:08:51.300Z,7.12
2023-01-17T12:11:44.935Z,7.19
2023-01-17T12:14:30.483Z,7.25
2023-01-17T12:17:07.645Z,7.29
2023-01-17T12:20:03.699Z,7.33
2023-01-17T12:23:18.028Z,7.39
2023-01-17T12:26:17.633Z,7.45
2023-01-17T12:29:07.469Z,7.51
2023-01-17T12:31:49.567Z,7.57
2023-01-17T12:34:22.601Z,7.62
2023-01-17T12:37:04.704Z,7.68
2023-01-17T12:39:49.825Z,7.70
2023-01-17T12:42:25.804Z,7.73
2023-01-17T12:45:09.993Z,7.76
2023-01-17T12:47:42.261Z,7.79
2023-01-17T12:50:36.745Z,7.80
2023-01-17T12:53:18.299Z,7.83
2023-01-17T12:56:15.602Z,7.88
2023-01-17T12:58:48.783Z,7.94
2023-01-17T13:01:31.922Z,8.03
2023-01-17T13:04:10.779Z,8.18
2023-01-17T13:06:46.801Z,8.33
2023-01-17T13:09:19.639Z,8.45
2023-01-17T13:12:04.903Z,8.54
2023-01-17T13:14:32.956Z,8.60
2023-01-17T13:17:20.325Z,8.62
2023-01-17T13:20:11.805Z,8.69
2023-01-17T13:22:40.829Z,8.74
2023-01-17T13:25:41.926Z,8.79
2023-01-17T13:28:34.498Z,8.83
2023-01-17T13:31:32.541Z,8.87
2023-01-17T13:34:29.798Z,8.81
2023-01-17T13:37:30.044Z,8.79
2023-01-17T13:40:36.519Z,8.72
2023-01-17T13:43:13.993Z,8.64
2023-01-17T13:45:45.345Z,8.57
2023-01-17T13:48:21.245Z,8.51
2023-01-17T13:50:58.567Z,8.48
2023-01-17T13:53:36.531Z,8.43
2023-01-17T13:56:31.800Z,8.40
2023-01-17T13:59:03.463Z,8.38
2023-01-17T14:01:38.884Z,8.44
2023-01-17T14:04:12.104Z,8.46
2023-01-17T14:06:49.131Z,8.42
2023-01-17T14:09:27.800Z,8.40
2023-01-17T14:12:13.651Z,8.36
2023-01-17T14:14:46.740Z,8.30
2023-01-17T14:17:20.111Z,8.24
2023-01-17T14:20:12.061Z,8.17
2023-01-17T14:22:51.477Z,8.10
2023-01-17T14:25:25.010Z,8.02
2023-01-17T14:27:58.208Z,7.97
2023-01-17T14:30:36.723Z,7.94
2023-01-17T14:33:12.934Z,7.85
2023-01-17T14:35:51.439Z,7.83
2023-01-17T14:38:28.195Z,7.79
2023-01-17T14:41:17.019Z,7.72
2023-01-17T14:43:48.338Z,7.68
2023-01-17T14:46:30.574Z,7.63
2023-01-17T14:49:09.037Z,7.58
2023-01-17T14:51:38.479Z,7.54
2023-01-17T14:54:17.897Z,7.48
2023-01-17T14:56:47.381Z,7.42
2023-01-17T14:59:22.484Z,7.36
2023-01-17T15:02:06.549Z,7.31
2023-01-17T15:04:29.876Z,7.24
2023-01-17T15:06:59.994Z,7.18
2023-01-17T15:09:32.641Z,7.13
2023-01-17T15:12:02.237Z,7.07
2023-01-17T15:14:37.307Z,7.00
2023-01-17T15:17:24.231Z,6.94
2023-01-17T15:20:01.181Z,6.87
2023-01-17T15:22:29.484Z,6.78
2023-01-17T15:24:59.674Z,6.67
2023-01-17T15:27:27.917Z,6.57
2023-01-17T15:29:58.490Z,6.48
2023-01-17T15:32:28.409Z,6.38
2023-01-17T15:34:56.505Z,6.26
2023-01-17T15:37:34.737Z,6.16
2023-01-17T15:40:12.883Z,6.03
2023-01-17T15:42:43.076Z,5.90
2023-01-17T15:45:22.623Z,5.82
2023-01-17T15:47:50.641Z,5.71
2023-01-17T15:50:25.803Z,5.58
2023-01-17T15:53:00.751Z,5.46
2023-01-17T15:55:37.952Z,5.35
2023-01-17T15:58:28.305Z,5.26
2023-01-17T16:00:58.579Z,5.19
2023-01-17T16:03:30.611Z,5.09
2023-01-17T16:06:02.307Z,5.03
2023-01-17T16:08:39.241Z,4.97
2023-01-17T16:11:10.489Z,4.90
2023-01-17T16:13:43.343Z,4.82
2023-01-17T16:16:17.424Z,4.73
2023-01-17T16:18:47.119Z,4.65
2023-01-17T16:21:26.913Z,4.58
2023-01-17T16:23:56.212Z,4.49
2023-01-17T16:26:30.143Z,4.41
2023-01-17T16:28:58.010Z,4.33
2023-01-17T16:31:27.600Z,4.23
2023-01-17T16:33:56.557Z,4.13
2023-01-17T16:36:24.555Z,4.04
2023-01-17T16:38:52.838Z,3.94
2023-01-17T16:41:21.463Z,3.83
2023-01-17T16:44:05.787Z,3.75
2023-01-17T16:46:47.367Z,3.69
2023-01-17T16:49:30.424Z,3.64
2023-01-17T16:52:05.894Z,3.58
2023-01-17T16:54:46.158Z,3.53
2023-01-17T16:57:17.515Z,3.50
2023-01-17T16:59:50.932Z,3.45
2023-01-17T17:02:18.377Z,3.40
2023-01-17T17:04:46.394Z,3.37
2023-01-17T17:07:14.162Z,3.34
2023-01-17T17:09:42.406Z,3.30
2023-01-17T17:12:10.152Z,3.28
2023-01-17T17:14:39.136Z,3.25
2023-01-17T17:17:07.896Z,3.26
2023-01-17T17:19:35.827Z,3.24
2023-01-17T17:22:05.783Z,3.23
2023-01-17T17:24:33.838Z,3.23
2023-01-17T17:27:03.516Z,3.22
2023-01-17T17:29:31.172Z,3.21
2023-01-17T17:31:59.219Z,3.19
2023-01-17T17:34:27.802Z,3.17
2023-01-17T17:36:55.706Z,3.19
2023-01-17T17:39:23.502Z,3.18
2023-01-17T17:41:52.281Z,3.19
2023-01-17T17:44:19.724Z,3.20
2023-01-17T17:46:50.980Z,3.20
2023-01-17T17:49:20.409Z,3.23
2023-01-17T17:51:47.915Z,3.24
2023-01-17T17:54:18.966Z,3.24
2023-01-17T17:56:47.943Z,3.25
2023-01-17T17:59:20.063Z,3.26
2023-01-17T18:01:48.320Z,3.27
2023-01-17T18:04:16.032Z,3.28
2023-01-17T18:06:50.863Z,3.28
2023-01-17T18:09:19.442Z,3.29
2023-01-17T18:11:47.305Z,3.28
2023-01-17T18:14:16.585Z,3.26
2023-01-17T18:16:44.791Z,3.24
2023-01-17T18:19:19.758Z,3.23
2023-01-17T18:21:49.945Z,3.23
2023-01-17T18:24:21.358Z,3.21
2023-01-17T18:26:56.690Z,3.18
2023-01-17T18:29:26.502Z,3.19
2023-01-17T18:31:55.003Z,3.17
2023-01-17T18:34:28.567Z,3.17
2023-01-17T18:36:57.497Z,3.20
2023-01-17T18:39:28.860Z,3.23
2023-01-17T18:41:57.839Z,3.25
2023-01-17T18:44:29.226Z,3.28
2023-01-17T18:47:01.217Z,3.31
2023-01-17T18:49:32.060Z,3.33
2023-01-17T18:52:00.332Z,3.35
2023-01-17T18:54:28.538Z,3.36
2023-01-17T18:56:56.714Z,3.38
2023-01-17T18:59:27.098Z,3.36
2023-01-17T19:01:59.028Z,3.35
2023-01-17T19:04:31.532Z,3.33
2023-01-17T19:06:59.740Z,3.31
2023-01-17T19:09:27.655Z,3.29
2023-01-17T19:11:56.487Z,3.27
2023-01-17T19:14:31.841Z,3.26
2023-01-17T19:17:01.285Z,3.24
2023-01-17T19:19:29.001Z,3.23
2023-01-17T19:22:09.926Z,3.21
2023-01-17T19:24:38.388Z,3.22
2023-01-17T19:27:08.168Z,3.21
2023-01-17T19:29:36.570Z,3.21
2023-01-17T19:32:18.613Z,3.21
2023-01-17T19:34:50.290Z,3.20
2023-01-17T19:37:17.995Z,3.18
2023-01-17T19:39:46.305Z,3.18
2023-01-17T19:42:15.131Z,3.18
2023-01-17T19:44:45.146Z,3.17
2023-01-17T19:47:16.387Z,3.13
2023-01-17T19:49:44.093Z,3.13
2023-01-17T19:52:12.610Z,3.11
2023-01-17T19:54:41.074Z,3.09
2023-01-17T19:57:11.951Z,3.08
2023-01-17T19:59:39.990Z,3.06
2023-01-17T20:02:09.881Z,3.05
2023-01-17T20:04:52.633Z,3.05
2023-01-17T20:07:24.829Z,3.05
2023-01-17T20:09:55.945Z,3.06
2023-01-17T20:12:23.815Z,3.09
2023-01-17T20:14:53.944Z,3.11
2023-01-17T20:17:21.879Z,3.12
2023-01-17T20:19:51.105Z,3.13
2023-01-17T20:22:20.900Z,3.14
2023-01-17T20:24:49.611Z,3.15
2023-01-17T20:27:18.444Z,3.16
2023-01-17T20:29:50.616Z,3.17
2023-01-17T20:32:18.966Z,3.14
2023-01-17T20:34:47.586Z,3.12
2023-01-17T20:37:15.539Z,3.09
2023-01-17T20:39:46.037Z,3.08
2023-01-17T20:42:13.861Z,3.07
2023-01-17T20:44:41.518Z,3.09
2023-01-17T20:47:08.947Z,3.09
2023-01-17T20:49:36.912Z,3.11
2023-01-17T20:52:06.260Z,3.13
2023-01-17T20:54:37.277Z,3.16
2023-01-17T20:57:04.949Z,3.17
2023-01-17T20:59:32.370Z,3.18
2023-01-17T21:02:00.325Z,3.19
2023-01-17T21:04:28.543Z,3.20
2023-01-17T21:06:57.080Z,3.20
2023-01-17T21:09:24.753Z,3.22
2023-01-17T21:11:53.782Z,3.25
2023-01-17T21:14:21.728Z,3.28
2023-01-17T21:16:51.391Z,3.33
2023-01-17T21:19:20.205Z,3.38
2023-01-17T21:21:49.473Z,3.41
2023-01-17T21:24:18.874Z,3.44
2023-01-17T21:26:49.317Z,3.49
2023-01-17T21:29:18.009Z,3.52
2023-01-17T21:31:45.943Z,3.57
2023-01-17T21:34:17.703Z,3.60
2023-01-17T21:36:45.389Z,3.62
2023-01-17T21:39:17.697Z,3.61
2023-01-17T21:41:49.020Z,3.71
2023-01-17T21:44:22.685Z,3.75
2023-01-17T21:46:56.679Z,3.80
2023-01-17T21:49:24.832Z,3.85
2023-01-17T21:51:52.540Z,3.89
2023-01-17T21:54:44.034Z,3.94
2023-01-17T21:57:33.020Z,3.97
2023-01-17T22:00:00.841Z,4.00
2023-01-17T22:02:31.045Z,4.03
2023-01-17T22:04:58.987Z,4.06
2023-01-17T22:07:26.807Z,4.09
2023-01-17T22:09:56.268Z,4.11
2023-01-17T22:12:24.219Z,4.16
2023-01-17T22:14:53.588Z,4.22
2023-01-17T22:17:22.435Z,4.27
2023-01-17T22:19:50.292Z,4.30
2023-01-17T22:22:18.110Z,4.33
2023-01-17T22:24:46.470Z,4.36
2023-01-17T22:27:14.034Z,4.40
2023-01-17T22:29:42.764Z,4.45
2023-01-17T22:32:10.478Z,4.49
2023-01-17T22:34:38.726Z,4.57
2023-01-17T22:37:09.405Z,4.64
2023-01-17T22:39:40.744Z,4.72
2023-01-17T22:42:08.649Z,4.76
2023-01-17T22:44:36.471Z,4.80
2023-01-17T22:47:05.144Z,4.82
2023-01-17T22:49:32.971Z,4.84
2023-01-17T22:52:00.820Z,4.86
2023-01-17T22:54:28.445Z,4.87
2023-01-17T22:56:56.301Z,4.88
2023-01-17T22:59:24.644Z,4.88
2023-01-17T23:01:53.724Z,4.89
2023-01-17T23:04:21.622Z,4.89
2023-01-17T23:06:49.254Z,4.90
2023-01-17T23:09:17.333Z,4.92
2023-01-17T23:11:51.308Z,4.94
2023-01-17T23:14:22.884Z,4.95
2023-01-17T23:17:19.512Z,4.97
2023-01-17T23:19:52.618Z,5.00
2023-01-17T23:22:23.910Z,5.06
2023-01-17T23:24:58.973Z,5.09
2023-01-17T23:28:01.332Z,5.12
2023-01-17T23:30:36.911Z,5.16
2023-01-17T23:33:11.774Z,5.17
2023-01-17T23:35:42.557Z,5.19
2023-01-17T23:38:33.463Z,5.22
2023-01-17T23:41:25.008Z,5.24
2023-01-17T23:43:55.204Z,5.27
2023-01-17T23:46:24.778Z,5.30
2023-01-17T23:48:52.688Z,5.33
2023-01-17T23:51:20.498Z,5.34
2023-01-17T23:53:48.150Z,5.36
2023-01-17T23:56:22.542Z,5.40
2023-01-17T23:58:51.014Z,5.41
